createdAt,value
2023-05-21T00:01:02.630Z,101386.81
2023-05-21T00:03:32.776Z,101376.56
2023-05-21T00:06:00.206Z,101373.41
2023-05-21T00:08:26.706Z,101365.00
2023-05-21T00:13:41.479Z,101377.69
2023-05-21T00:16:09.863Z,101379.72
2023-05-21T00:18:37.159Z,101375.66
2023-05-21T00:21:06.393Z,101375.25
2023-05-21T00:23:32.947Z,101371.28
2023-05-21T00:28:45.143Z,101373.91
2023-05-21T00:31:11.674Z,101372.25
2023-05-21T00:33:40.014Z,101375.84
2023-05-21T00:36:07.314Z,101376.13
2023-05-21T00:38:34.611Z,101377.03
2023-05-21T00:43:45.688Z,101377.00
2023-05-21T00:46:12.993Z,101385.25
2023-05-21T00:48:40.322Z,101378.16
2023-05-21T00:51:07.638Z,101380.19
2023-05-21T00:53:34.180Z,101379.09
2023-05-21T00:58:55.403Z,101391.06
2023-05-21T01:01:21.896Z,101385.84
2023-05-21T01:03:50.251Z,101383.44
2023-05-21T01:06:17.514Z,101383.47
2023-05-21T01:08:43.985Z,101381.88
2023-05-21T01:13:56.236Z,101376.50
2023-05-21T01:16:22.734Z,101377.16
2023-05-21T01:18:50.145Z,101377.56
2023-05-21T01:21:16.689Z,101371.22
2023-05-21T01:23:43.970Z,101377.13
2023-05-21T01:28:54.419Z,101371.09
2023-05-21T01:31:22.749Z,101376.28
2023-05-21T01:33:50.099Z,101376.63
2023-05-21T01:36:17.517Z,101376.69
2023-05-21T01:38:46.731Z,101375.38
2023-05-21T01:43:58.034Z,101373.84
2023-05-21T01:46:25.391Z,101375.09
2023-05-21T01:48:51.990Z,101377.94
2023-05-21T01:51:18.526Z,101367.94
2023-05-21T01:53:45.036Z,101370.72
2023-05-21T01:56:11.513Z,101371.06
2023-05-21T01:58:38.037Z,101365.38
2023-05-21T02:01:06.421Z,101369.03
2023-05-21T02:03:33.075Z,101368.66
2023-05-21T02:06:00.436Z,101364.50
2023-05-21T02:08:26.955Z,101368.59
2023-05-21T02:10:53.417Z,101366.88
2023-05-21T02:13:19.946Z,101372.34
2023-05-21T02:15:48.311Z,101366.13
2023-05-21T02:18:14.810Z,101370.31
2023-05-21T02:20:42.106Z,101365.91
2023-05-21T02:23:09.396Z,101360.25
2023-05-21T02:25:37.113Z,101360.31
2023-05-21T02:28:03.781Z,101370.03
2023-05-21T02:30:31.066Z,101361.22
2023-05-21T02:32:58.386Z,101364.56
2023-05-21T02:35:24.820Z,101358.81
2023-05-21T02:37:51.288Z,101354.75
2023-05-21T02:40:18.593Z,101354.66
2023-05-21T02:42:45.121Z,101358.50
2023-05-21T02:45:13.491Z,101361.59
2023-05-21T02:47:41.120Z,101358.59
2023-05-21T02:50:09.680Z,101362.53
2023-05-21T02:52:36.966Z,101361.00
2023-05-21T02:55:05.339Z,101359.81
2023-05-21T02:57:32.629Z,101359.75
2023-05-21T03:00:02.595Z,101359.84
2023-05-21T03:02:31.014Z,101366.59
2023-05-21T03:04:59.422Z,101366.16
2023-05-21T03:07:25.995Z,101362.50
2023-05-21T03:09:52.558Z,101366.41
2023-05-21T03:12:20.873Z,101364.84
2023-05-21T03:17:31.510Z,101356.31
2023-05-21T03:19:59.898Z,101359.09
2023-05-21T03:22:26.453Z,101352.03
2023-05-21T03:24:52.972Z,101354.59
2023-05-21T03:27:19.473Z,101346.09
2023-05-21T03:32:31.928Z,101342.31
2023-05-21T03:34:58.424Z,101344.47
2023-05-21T03:37:26.757Z,101357.91
2023-05-21T03:39:53.214Z,101348.38
2023-05-21T03:42:19.724Z,101353.13
2023-05-21T03:47:30.805Z,101344.28
2023-05-21T03:49:57.351Z,101344.88
2023-05-21T03:52:23.898Z,101346.75
2023-05-21T03:54:52.246Z,101349.97
2023-05-21T03:57:18.661Z,101342.56
2023-05-21T04:02:33.938Z,101343.03
2023-05-21T04:05:00.438Z,101345.19
2023-05-21T04:07:27.740Z,101349.59
2023-05-21T04:09:54.175Z,101349.03
2023-05-21T04:12:20.703Z,101347.25
2023-05-21T04:17:31.792Z,101346.38
2023-05-21T04:19:58.265Z,101351.72
2023-05-21T04:22:24.744Z,101356.81
2023-05-21T04:24:51.201Z,101346.38
2023-05-21T04:27:17.646Z,101337.03
2023-05-21T04:32:27.961Z,101338.00
2023-05-21T04:34:55.257Z,101330.16
2023-05-21T04:37:21.647Z,101326.91
2023-05-21T04:39:48.054Z,101328.78
2023-05-21T04:42:15.352Z,101328.03
2023-05-21T04:47:25.854Z,101324.00
2023-05-21T04:49:52.272Z,101316.84
2023-05-21T04:52:18.720Z,101324.78
2023-05-21T04:54:45.171Z,101316.88
2023-05-21T04:57:11.622Z,101323.56
2023-05-21T05:02:23.141Z,101319.28
2023-05-21T05:04:49.661Z,101323.88
2023-05-21T05:07:16.117Z,101321.38
2023-05-21T05:09:42.563Z,101318.84
2023-05-21T05:12:09.029Z,101321.81
2023-05-21T05:17:30.440Z,101317.97
2023-05-21T05:19:56.902Z,101322.19
2023-05-21T05:22:23.372Z,101325.00
2023-05-21T05:24:50.660Z,101319.13
2023-05-21T05:27:17.912Z,101315.94
2023-05-21T05:32:28.183Z,101316.84
2023-05-21T05:34:54.607Z,101321.19
2023-05-21T05:37:21.011Z,101317.06
2023-05-21T05:39:47.420Z,101316.53
2023-05-21T05:42:13.773Z,101306.75
2023-05-21T05:44:43.757Z,101308.78
2023-05-21T05:47:10.220Z,101308.34
2023-05-21T05:49:36.734Z,101311.22
2023-05-21T05:52:05.110Z,101308.97
2023-05-21T05:54:32.421Z,101310.94
2023-05-21T05:56:58.844Z,101312.19
2023-05-21T05:59:27.183Z,101303.50
2023-05-21T06:01:53.948Z,101306.69
2023-05-21T06:04:20.450Z,101296.72
2023-05-21T06:06:46.956Z,101303.13
2023-05-21T06:09:13.454Z,101305.44
2023-05-21T06:11:40.877Z,101301.44
2023-05-21T06:14:08.260Z,101296.38
2023-05-21T06:16:35.606Z,101300.03
2023-05-21T06:19:02.283Z,101301.94
2023-05-21T06:21:28.775Z,101305.59
2023-05-21T06:23:56.078Z,101300.03
2023-05-21T06:26:22.583Z,101298.06
2023-05-21T06:28:49.962Z,101302.84
2023-05-21T06:31:17.337Z,101302.91
2023-05-21T06:33:45.885Z,101300.13
2023-05-21T06:36:14.494Z,101298.53
2023-05-21T06:38:43.127Z,101296.53
2023-05-21T06:41:10.783Z,101296.97
2023-05-21T06:43:37.531Z,101293.31
2023-05-21T06:46:04.840Z,101294.56
2023-05-21T06:48:31.398Z,101298.19
2023-05-21T06:50:57.858Z,101294.56
2023-05-21T06:53:24.262Z,101293.31
2023-05-21T06:55:50.711Z,101289.78
2023-05-21T06:58:17.971Z,101285.84
2023-05-21T07:00:44.349Z,101276.34
2023-05-21T07:05:55.756Z,101288.28
2023-05-21T07:08:24.041Z,101277.91
2023-05-21T07:10:50.428Z,101277.50
2023-05-21T07:13:17.693Z,101278.31
2023-05-21T07:15:46.033Z,101274.38
2023-05-21T07:20:57.616Z,101277.19
2023-05-21T07:23:24.893Z,101276.41
2023-05-21T07:25:52.177Z,101270.06
2023-05-21T07:28:18.641Z,101275.28
2023-05-21T07:30:45.177Z,101270.88
2023-05-21T07:36:06.852Z,101273.31
2023-05-21T07:38:34.236Z,101268.97
2023-05-21T07:41:01.511Z,101268.19
2023-05-21T07:43:28.012Z,101265.78
2023-05-21T07:45:55.448Z,101260.63
2023-05-21T07:51:06.747Z,101264.59
2023-05-21T07:53:34.075Z,101266.63
2023-05-21T07:56:00.599Z,101265.47
2023-05-21T07:58:27.968Z,101259.81
2023-05-21T08:00:54.472Z,101255.84
2023-05-21T08:06:16.886Z,101259.41
2023-05-21T08:08:44.194Z,101256.75
2023-05-21T08:11:10.687Z,101249.19
2023-05-21T08:13:37.974Z,101251.56
2023-05-21T08:16:04.546Z,101243.59
2023-05-21T08:21:15.753Z,101244.81
2023-05-21T08:23:42.166Z,101246.47
2023-05-21T08:26:09.406Z,101244.84
2023-05-21T08:28:35.798Z,101241.66
2023-05-21T08:31:02.233Z,101235.31
2023-05-21T08:36:22.379Z,101239.28
2023-05-21T08:38:48.762Z,101240.50
2023-05-21T08:41:15.165Z,101233.72
2023-05-21T08:43:41.619Z,101235.31
2023-05-21T08:46:08.005Z,101243.69
2023-05-21T08:51:19.347Z,101241.25
2023-05-21T08:53:45.809Z,101245.66
2023-05-21T08:56:12.317Z,101244.50
2023-05-21T08:58:38.708Z,101237.72
2023-05-21T09:01:05.145Z,101241.59
2023-05-21T09:06:15.593Z,101240.88
2023-05-21T09:08:41.981Z,101248.47
2023-05-21T09:11:08.384Z,101244.84
2023-05-21T09:13:36.847Z,101237.31
2023-05-21T09:16:04.700Z,101226.53
2023-05-21T09:21:16.138Z,101228.13
2023-05-21T09:23:42.546Z,101232.13
2023-05-21T09:26:09.869Z,101224.94
2023-05-21T09:28:36.243Z,101225.31
2023-05-21T09:31:02.612Z,101224.13
2023-05-21T09:33:29.082Z,101223.34
2023-05-21T09:35:55.546Z,101211.78
2023-05-21T09:38:21.914Z,101210.59
2023-05-21T09:40:48.305Z,101216.56
2023-05-21T09:43:15.554Z,101219.34
2023-05-21T09:45:41.935Z,101220.97
2023-05-21T09:48:08.376Z,101216.97
2023-05-21T09:50:35.105Z,101228.53
2023-05-21T09:53:01.659Z,101222.97
2023-05-21T09:55:28.038Z,101230.50
2023-05-21T09:57:54.422Z,101222.13
2023-05-21T10:00:20.841Z,101220.94
2023-05-21T10:02:47.358Z,101224.16
2023-05-21T10:05:13.790Z,101219.75
2023-05-21T10:07:40.173Z,101217.38
2023-05-21T10:10:06.585Z,101218.16
2023-05-21T10:12:32.984Z,101214.16
2023-05-21T10:14:59.330Z,101212.16
2023-05-21T10:17:25.783Z,101205.00
2023-05-21T10:19:52.133Z,101214.16
2023-05-21T10:22:18.461Z,101203.81
2023-05-21T10:24:44.851Z,101205.41
2023-05-21T10:27:11.236Z,101211.78
2023-05-21T10:29:37.619Z,101202.22
2023-05-21T10:32:04.043Z,101202.63
2023-05-21T10:34:30.432Z,101193.47
2023-05-21T10:39:40.899Z,101196.66
2023-05-21T10:42:07.302Z,101190.69
2023-05-21T10:44:33.689Z,101193.03
2023-05-21T10:47:00.065Z,101189.47
2023-05-21T10:49:26.566Z,101191.06
2023-05-21T10:54:36.785Z,101187.88
2023-05-21T10:57:03.150Z,101186.28
2023-05-21T10:59:29.568Z,101177.13
2023-05-21T11:01:55.961Z,101187.50
2023-05-21T11:04:22.337Z,101181.09
2023-05-21T11:09:32.874Z,101177.13
2023-05-21T11:11:59.245Z,101177.91
2023-05-21T11:14:25.656Z,101169.53
2023-05-21T11:16:52.077Z,101171.13
2023-05-21T11:19:18.562Z,101177.50
2023-05-21T11:24:29.158Z,101165.56
2023-05-21T11:26:55.548Z,101163.16
2023-05-21T11:29:21.940Z,101155.97
2023-05-21T11:31:48.462Z,101169.16
2023-05-21T11:34:15.904Z,101157.59
2023-05-21T11:39:26.252Z,101153.19
2023-05-21T11:41:52.646Z,101158.38
2023-05-21T11:44:19.929Z,101157.19
2023-05-21T11:46:46.344Z,101154.41
2023-05-21T11:49:12.808Z,101154.78
2023-05-21T11:54:23.348Z,101161.56
2023-05-21T11:56:49.726Z,101157.19
2023-05-21T11:59:18.531Z,101156.81
2023-05-21T12:01:45.264Z,101157.59
2023-05-21T12:04:12.570Z,101164.34
2023-05-21T12:09:23.078Z,101151.19
2023-05-21T12:11:49.506Z,101159.97
2023-05-21T12:14:15.916Z,101148.44
2023-05-21T12:16:42.374Z,101148.03
2023-05-21T12:19:08.800Z,101150.00
2023-05-21T12:21:35.210Z,101148.03
2023-05-21T12:24:01.601Z,101149.59
2023-05-21T12:26:27.979Z,101142.44
2023-05-21T12:28:54.354Z,101142.44
2023-05-21T12:31:20.747Z,101146.41
2023-05-21T12:33:47.245Z,101148.03
2023-05-21T12:36:14.493Z,101139.22
2023-05-21T12:38:40.915Z,101137.25
2023-05-21T12:41:07.340Z,101140.44
2023-05-21T12:43:33.744Z,101140.06
2023-05-21T12:46:00.224Z,101133.66
2023-05-21T12:48:26.657Z,101124.91
2023-05-21T12:50:53.025Z,101128.06
2023-05-21T12:53:19.421Z,101126.09
2023-05-21T12:55:45.809Z,101129.69
2023-05-21T12:58:13.048Z,101127.28
2023-05-21T13:00:39.651Z,101121.31
2023-05-21T13:03:06.749Z,101121.31
2023-05-21T13:05:33.512Z,101119.28
2023-05-21T13:07:59.901Z,101119.69
2023-05-21T13:10:26.271Z,101121.69
2023-05-21T13:12:52.674Z,101119.69
2023-05-21T13:15:19.378Z,101124.88
2023-05-21T13:17:46.423Z,101120.91
2023-05-21T13:20:14.255Z,101121.31
2023-05-21T13:22:40.662Z,101127.69
2023-05-21T13:25:07.033Z,101111.34
2023-05-21T13:27:33.392Z,101098.22
2023-05-21T13:29:59.746Z,101114.53
2023-05-21T13:32:26.187Z,101107.38
2023-05-21T13:34:52.635Z,101113.34
2023-05-21T13:37:19.037Z,101104.19
2023-05-21T13:42:29.237Z,101102.56
2023-05-21T13:44:55.596Z,101103.38
2023-05-21T13:47:21.956Z,101105.34
2023-05-21T13:49:48.299Z,101096.97
2023-05-21T13:52:14.697Z,101098.19
2023-05-21T13:57:24.774Z,101099.38
2023-05-21T13:59:51.167Z,101100.59
2023-05-21T14:02:18.495Z,101096.97
2023-05-21T14:04:44.907Z,101102.97
2023-05-21T14:07:11.301Z,101094.19
2023-05-21T14:12:31.775Z,101095.81
2023-05-21T14:14:58.170Z,101089.84
2023-05-21T14:17:24.606Z,101088.22
2023-05-21T14:19:51.056Z,101085.44
2023-05-21T14:22:17.456Z,101093.81
2023-05-21T14:27:27.593Z,101091.81
2023-05-21T14:29:53.972Z,101092.63
2023-05-21T14:32:20.511Z,101093.44
2023-05-21T14:34:46.879Z,101090.22
2023-05-21T14:37:13.270Z,101090.25
2023-05-21T14:42:23.506Z,101079.47
2023-05-21T14:44:49.874Z,101076.69
2023-05-21T14:47:17.123Z,101076.69
2023-05-21T14:49:43.517Z,101084.28
2023-05-21T14:52:10.771Z,101073.91
2023-05-21T14:57:20.899Z,101081.88
2023-05-21T14:59:47.279Z,101068.72
2023-05-21T15:02:13.688Z,101067.09
2023-05-21T15:04:40.126Z,101068.28
2023-05-21T15:07:06.573Z,101065.09
2023-05-21T15:12:26.678Z,101061.91
2023-05-21T15:14:53.070Z,101063.50
2023-05-21T15:17:20.320Z,101066.69
2023-05-21T15:19:46.752Z,101059.91
2023-05-21T15:22:13.195Z,101059.50
2023-05-21T15:24:39.577Z,101052.34
2023-05-21T15:27:07.950Z,101061.09
2023-05-21T15:29:35.216Z,101052.31
2023-05-21T15:32:02.500Z,101061.09
2023-05-21T15:34:28.950Z,101052.72
2023-05-21T15:36:55.390Z,101062.25
2023-05-21T15:39:21.892Z,101054.28
2023-05-21T15:41:48.362Z,101051.06
2023-05-21T15:44:14.750Z,101055.47
2023-05-21T15:46:41.161Z,101053.09
2023-05-21T15:49:07.611Z,101056.66
2023-05-21T15:51:33.996Z,101053.50
2023-05-21T15:54:00.375Z,101051.88
2023-05-21T15:56:26.777Z,101058.69
2023-05-21T15:58:53.185Z,101050.72
2023-05-21T16:01:19.550Z,101049.53
2023-05-21T16:03:46.020Z,101057.50
2023-05-21T16:06:13.429Z,101050.72
2023-05-21T16:08:39.821Z,101048.69
2023-05-21T16:11:06.207Z,101052.31
2023-05-21T16:13:32.576Z,101050.69
2023-05-21T16:15:58.981Z,101041.94
2023-05-21T16:18:25.363Z,101048.31
2023-05-21T16:20:51.741Z,101039.13
2023-05-21T16:23:18.126Z,101044.31
2023-05-21T16:25:44.512Z,101045.94
2023-05-21T16:30:54.754Z,101046.66
2023-05-21T16:33:21.153Z,101049.47
2023-05-21T16:35:47.546Z,101053.06
2023-05-21T16:38:14.022Z,101045.13
2023-05-21T16:40:40.406Z,101047.50
2023-05-21T16:45:50.651Z,101041.16
2023-05-21T16:48:17.022Z,101050.34
2023-05-21T16:50:43.397Z,101044.34
2023-05-21T16:53:10.754Z,101046.72
2023-05-21T16:55:37.420Z,101045.13
2023-05-21T17:00:48.011Z,101045.53
2023-05-21T17:03:15.464Z,101050.72
2023-05-21T17:05:43.838Z,101046.31
2023-05-21T17:08:11.175Z,101052.69
2023-05-21T17:10:39.480Z,101047.91
2023-05-21T17:15:49.831Z,101052.31
2023-05-21T17:18:16.317Z,101050.31
2023-05-21T17:20:42.787Z,101050.31
2023-05-21T17:23:10.451Z,101047.16
2023-05-21T17:25:37.999Z,101049.94
2023-05-21T17:30:49.814Z,101047.16
2023-05-21T17:33:16.474Z,101046.31
2023-05-21T17:35:43.856Z,101049.13
2023-05-21T17:38:13.073Z,101049.13
2023-05-21T17:40:39.566Z,101045.53
2023-05-21T17:45:49.780Z,101045.94
2023-05-21T17:48:17.105Z,101043.53
2023-05-21T17:50:43.529Z,101047.16
2023-05-21T17:53:09.909Z,101040.38
2023-05-21T17:55:36.661Z,101034.78
2023-05-21T18:00:48.465Z,101030.81
2023-05-21T18:03:15.024Z,101032.38
2023-05-21T18:05:41.530Z,101031.63
2023-05-21T18:08:07.901Z,101038.41
2023-05-21T18:10:34.289Z,101027.63
2023-05-21T18:15:44.694Z,101031.22
2023-05-21T18:18:11.105Z,101038.78
2023-05-21T18:20:39.308Z,101030.41
2023-05-21T18:23:06.849Z,101038.78
2023-05-21T18:25:33.410Z,101041.19
2023-05-21T18:30:45.861Z,101034.47
2023-05-21T18:33:13.222Z,101044.00
2023-05-21T18:35:40.558Z,101042.00
2023-05-21T18:38:07.930Z,101046.03
2023-05-21T18:40:35.380Z,101051.63
2023-05-21T18:45:47.514Z,101049.22
2023-05-21T18:48:13.961Z,101054.78
2023-05-21T18:50:40.328Z,101059.97
2023-05-21T18:53:06.757Z,101056.78
2023-05-21T18:55:33.157Z,101064.72
2023-05-21T18:57:59.654Z,101058.38
2023-05-21T19:00:26.193Z,101058.00
2023-05-21T19:02:52.751Z,101062.75
2023-05-21T19:05:19.310Z,101067.97
2023-05-21T19:07:45.718Z,101073.13
2023-05-21T19:10:12.110Z,101066.38
2023-05-21T19:12:38.736Z,101066.38
2023-05-21T19:15:05.138Z,101067.97
2023-05-21T19:17:34.405Z,101068.75
2023-05-21T19:20:00.833Z,101067.97
2023-05-21T19:22:28.121Z,101063.56
2023-05-21T19:24:57.297Z,101061.59
2023-05-21T19:27:23.739Z,101066.75
2023-05-21T19:29:50.130Z,101068.38
2023-05-21T19:32:17.377Z,101074.72
2023-05-21T19:34:43.758Z,101068.38
2023-05-21T19:37:10.137Z,101073.94
2023-05-21T19:39:36.535Z,101075.94
2023-05-21T19:42:02.929Z,101078.72
2023-05-21T19:44:29.332Z,101076.72
2023-05-21T19:46:55.697Z,101079.91
2023-05-21T19:49:22.057Z,101081.91
2023-05-21T19:51:49.621Z,101083.84
2023-05-21T19:54:17.009Z,101079.50
2023-05-21T19:56:43.429Z,101074.69
2023-05-21T19:59:09.825Z,101064.34
2023-05-21T20:04:20.072Z,101069.91
2023-05-21T20:06:46.604Z,101063.56
2023-05-21T20:09:13.055Z,101068.31
2023-05-21T20:11:39.450Z,101061.56
2023-05-21T20:14:08.653Z,101067.91
2023-05-21T20:19:20.167Z,101069.13
2023-05-21T20:21:46.722Z,101067.53
2023-05-21T20:24:14.057Z,101060.78
2023-05-21T20:26:42.387Z,101059.56
2023-05-21T20:29:08.879Z,101065.13
2023-05-21T20:34:22.349Z,101067.91
2023-05-21T20:36:48.857Z,101065.13
2023-05-21T20:39:16.198Z,101065.91
2023-05-21T20:41:43.486Z,101075.88
2023-05-21T20:44:10.748Z,101074.25
2023-05-21T20:49:23.233Z,101078.66
2023-05-21T20:51:49.661Z,101070.69
2023-05-21T20:54:16.956Z,101074.25
2023-05-21T20:56:43.377Z,101073.84
2023-05-21T20:59:12.677Z,101071.06
2023-05-21T21:04:23.454Z,101074.63
2023-05-21T21:06:49.895Z,101068.66
2023-05-21T21:09:17.196Z,101064.31
2023-05-21T21:11:43.632Z,101065.09
2023-05-21T21:14:10.105Z,101061.47
2023-05-21T21:19:20.764Z,101057.50
2023-05-21T21:21:47.266Z,101057.50
2023-05-21T21:24:15.534Z,101057.50
2023-05-21T21:26:42.821Z,101045.97
2023-05-21T21:29:11.150Z,101044.72
2023-05-21T21:34:23.593Z,101044.28
2023-05-21T21:36:52.801Z,101041.88
2023-05-21T21:39:22.004Z,101043.84
2023-05-21T21:41:50.354Z,101048.59
2023-05-21T21:44:17.639Z,101043.81
2023-05-21T21:49:32.494Z,101043.03
2023-05-21T21:51:58.920Z,101046.97
2023-05-21T21:54:25.365Z,101041.00
2023-05-21T21:56:51.850Z,101048.59
2023-05-21T21:59:18.288Z,101045.81
2023-05-21T22:04:30.433Z,101051.78
2023-05-21T22:06:59.619Z,101050.19
2023-05-21T22:09:26.052Z,101048.16
2023-05-21T22:11:52.534Z,101047.75
2023-05-21T22:14:20.860Z,101048.94
2023-05-21T22:19:36.534Z,101047.31
2023-05-21T22:22:05.830Z,101050.50
2023-05-21T22:24:34.133Z,101049.34
2023-05-21T22:27:00.594Z,101050.47
2023-05-21T22:29:27.132Z,101057.25
2023-05-21T22:34:39.489Z,101059.97
2023-05-21T22:37:06.771Z,101054.41
2023-05-21T22:39:35.085Z,101058.28
2023-05-21T22:42:03.431Z,101054.75
2023-05-21T22:44:29.897Z,101059.84
2023-05-21T22:46:56.528Z,101059.81
2023-05-21T22:49:24.953Z,101057.03
2023-05-21T22:51:51.416Z,101064.66
2023-05-21T22:54:17.969Z,101057.13
2023-05-21T22:56:44.486Z,101052.34
2023-05-21T22:59:13.600Z,101056.59
2023-05-21T23:01:40.137Z,101056.66
2023-05-21T23:04:09.325Z,101062.19
2023-05-21T23:06:35.790Z,101061.44
2023-05-21T23:09:02.252Z,101057.03
2023-05-21T23:11:32.214Z,101051.38
2023-05-21T23:13:58.696Z,101050.16
2023-05-21T23:16:25.285Z,101048.22
2023-05-21T23:18:52.663Z,101043.84
2023-05-21T23:21:21.070Z,101047.03
2023-05-21T23:23:48.362Z,101051.41
2023-05-21T23:26:15.642Z,101043.44
2023-05-21T23:28:44.842Z,101044.31
2023-05-21T23:31:11.373Z,101048.28
2023-05-21T23:33:38.025Z,101041.50
2023-05-21T23:36:04.493Z,101038.94
2023-05-21T23:38:32.854Z,101039.84
2023-05-21T23:40:59.377Z,101041.72
2023-05-21T23:43:25.895Z,101041.28
2023-05-21T23:45:54.283Z,101042.44
2023-05-21T23:48:20.858Z,101042.88
2023-05-21T23:50:48.138Z,101044.34
2023-05-21T23:53:15.423Z,101036.47
2023-05-21T23:55:42.705Z,101039.09
2023-05-21T23:58:09.214Z,101034.78
